USP weather

Public forecast

Using degrees Celsius for public forecast. Weather courtesy of forecast.io.

Closest aviation weather report (METAR) to Uspallata Airport

Closest report is El Plumerillo Airport, 33.0 nm (61.1 km) ESE. Retrieved 2020/08/15 04:00 UTC (49 minutes ago):

SAME 150400Z 18003KT CAVOK 05/M04 Q1014

Closest aviation forecast (TAF) to Uspallata Airport

Closest forecast is El Plumerillo Airport, 33.0 nm (61.1 km) ESE. Retrieved 2020-08-15 00:00 UTC (5 hours ago):

TAF SAME 142300Z 1500/1524 05005KT CAVOK TX16/1520Z TNM01/1511Z